Murray City, OH (43144)

8:26 PM EDT on September 01, 2014 (GMT -0400)
KOHNEWLE4 | Change Station
CLOSE
Current Station
Personal Weather Station
Location: New Lexington, OH
Elevation: 860 ft
Nearby Weather Stations

Elev 860 ft 39.72 °N, 82.21 °W | Updated 4 seconds ago

Clear
Clear
74.7 °F
Feels Like 73 °F
N
0.0
Wind Variable Wind from North
Gusts 0.0 mph

Today
High -- | Low -- °F
--% Chance of Precip.
Yesterday
High -- | Low -- °F
Precip. -- in
6:56 AM 7:59 PM
Waxing Crescent, 45% visible
Pressure 29.97 in
Visibility 10.0 miles
Clouds Scattered Clouds 7500 ft
Scattered Clouds 8500 ft
Heat Index 73 °F
Dew Point 72 °F
Humidity 91%
Rainfall 0.07 in
Snow Depth Not available.
UV 0 out of 12
Pollen 9.90 out of 12
Air Quality Not available.
Flu Activity Not available.
METAR KUNI 020015Z AUTO 20005KT 10SM SCT075 SCT085 25/20 A2997 RMK AO2 LTG DSNT N T02450198

More Conditions Fewer Conditions

Pressure 29.97 in
Visibility 10.0 miles
Clouds Scattered Clouds 7500 ft
Scattered Clouds 8500 ft
Heat Index 73 °F
Dew Point 72 °F
Humidity 91%
Rainfall 0.07 in
Snow Depth Not available.
UV 0 out of 12
Pollen 9.90 out of 12
Air Quality Not available.
Flu Activity Not available.
METAR KUNI 020015Z AUTO 20005KT 10SM SCT075 SCT085 25/20 A2997 RMK AO2 LTG DSNT N T02450198

More Conditions Fewer Conditions

10-Day Weather Forecast

Almanac

Astronomy

Sep. 01, 2014 Rise Set
Actual Time 6:56 AM EDT 7:59 PM EDT
Civil Twilight 6:29 AM EDT 8:27 PM EDT
Nautical Twilight 5:56 AM EDT 8:59 PM EDT
Astronomical Twilight 5:22 AM EDT 9:33 PM EDT
Moon 1:39 PM EDT (9/1) No Moon Set
Length of Visible Light 13h 57m
Length of Day
13h 02m
Tomorrow will be 2m 28s shorter.
Waxing Crescent, 45% of the Moon is Illuminated
Today
Waxing Crescent
Sep 2
First Quarter
Sep 8
Full
Sep 15
Last Quarter
Sep 24
New

Today's Extremes

State Highs State Lows

Community

WunderPhotos

Upload Photos

1,749,461 photos uploaded!

Nearby

Snow Depth

Station Depth Elevation
No new snow has been reported.

Earthquake Activity

City Distance Mag. Time & Date
No recent earthquake activity has been reported nearby.
Minimum magnitude displayed is 2.5.

Coastal Water Temperatures

Place Temperature
No Stations Reporting

Nearby Weather Stations